createdAt,value
2022-10-30T00:00:03.121Z,642.4210
2022-10-30T00:00:14.311Z,641.8030
2022-10-30T00:00:25.508Z,643.6610
2022-10-30T00:00:36.709Z,639.9550
2022-10-30T00:00:47.909Z,645.5310
2022-10-30T00:00:59.108Z,646.1560
2022-10-30T00:01:10.179Z,644.9060
2022-10-30T00:01:21.306Z,642.4210
2022-10-30T00:01:32.424Z,645.5310
2022-10-30T00:01:43.661Z,642.4210
2022-10-30T00:01:55.031Z,644.2830
2022-10-30T00:02:06.451Z,644.9060
2022-10-30T00:02:17.787Z,642.4210
2022-10-30T00:02:29.172Z,644.9060
2022-10-30T00:02:40.661Z,644.9060
2022-10-30T00:02:51.888Z,643.6610
2022-10-30T00:03:03.383Z,642.4210
2022-10-30T00:03:14.911Z,648.0400
2022-10-30T00:03:25.994Z,645.5310
2022-10-30T00:03:37.188Z,647.4110
2022-10-30T00:03:48.239Z,648.0400
2022-10-30T00:03:59.283Z,646.7830
2022-10-30T00:04:10.468Z,649.9350
2022-10-30T00:04:21.668Z,644.2830
2022-10-30T00:04:32.869Z,650.5690
2022-10-30T00:04:44.077Z,651.2040
2022-10-30T00:04:55.269Z,648.0400
2022-10-30T00:05:06.469Z,644.9060
2022-10-30T00:05:17.667Z,647.4110
2022-10-30T00:05:28.887Z,651.2040
2022-10-30T00:05:40.068Z,649.3020
2022-10-30T00:05:51.275Z,646.7830
2022-10-30T00:06:02.396Z,647.4110
2022-10-30T00:06:13.535Z,649.9350
2022-10-30T00:06:24.549Z,648.0400
2022-10-30T00:06:35.602Z,653.1180
2022-10-30T00:06:46.638Z,652.4790
2022-10-30T00:06:57.851Z,653.7580
2022-10-30T00:07:09.030Z,651.2040
2022-10-30T00:07:20.268Z,649.9350
2022-10-30T00:07:31.437Z,656.3320
2022-10-30T00:07:42.628Z,656.9780
2022-10-30T00:07:53.687Z,653.7580
2022-10-30T00:08:04.739Z,655.0420
2022-10-30T00:08:15.908Z,655.0420
2022-10-30T00:08:27.108Z,652.4790
2022-10-30T00:08:38.308Z,648.6700
2022-10-30T00:08:49.507Z,649.9350
2022-10-30T00:09:00.710Z,650.5690
2022-10-30T00:09:11.757Z,653.1180
2022-10-30T00:09:22.788Z,656.3320
2022-10-30T00:09:33.988Z,656.3320
2022-10-30T00:09:45.189Z,657.6260
2022-10-30T00:09:56.387Z,656.9780
2022-10-30T00:10:07.589Z,656.9780
2022-10-30T00:10:18.628Z,653.1180
2022-10-30T00:10:29.668Z,653.7580
2022-10-30T00:10:40.868Z,663.5160
2022-10-30T00:10:52.069Z,653.1180
2022-10-30T00:11:03.269Z,653.7580
2022-10-30T00:11:14.521Z,655.0420
2022-10-30T00:11:25.669Z,655.0420
2022-10-30T00:11:36.868Z,660.2310
2022-10-30T00:11:48.083Z,657.6260
2022-10-30T00:11:59.268Z,653.7580
2022-10-30T00:12:10.469Z,655.0420
2022-10-30T00:12:21.529Z,653.7580
2022-10-30T00:12:32.588Z,658.9260
2022-10-30T00:12:43.748Z,655.6860
2022-10-30T00:12:54.948Z,658.2760
2022-10-30T00:13:06.149Z,657.6260
2022-10-30T00:13:17.349Z,659.5780
2022-10-30T00:13:28.579Z,655.6860
2022-10-30T00:13:39.747Z,656.9780
2022-10-30T00:13:50.948Z,655.0420
2022-10-30T00:14:02.158Z,656.3320
2022-10-30T00:14:13.349Z,660.2310
2022-10-30T00:14:24.386Z,656.9780
2022-10-30T00:14:35.428Z,660.2310
2022-10-30T00:14:46.628Z,656.3320
2022-10-30T00:14:57.829Z,662.8560
2022-10-30T00:15:09.032Z,658.9260
2022-10-30T00:15:20.227Z,658.9260
2022-10-30T00:15:31.428Z,660.2310
2022-10-30T00:15:42.628Z,656.9780
2022-10-30T00:15:53.853Z,662.8560
2022-10-30T00:16:05.027Z,662.1980
2022-10-30T00:16:16.088Z,662.8560
2022-10-30T00:16:27.261Z,661.5410
2022-10-30T00:16:38.307Z,660.2310
2022-10-30T00:16:49.509Z,665.5020
2022-10-30T00:17:00.712Z,660.2310
2022-10-30T00:17:11.908Z,662.1980
2022-10-30T00:17:23.137Z,658.9260
2022-10-30T00:17:34.309Z,661.5410
2022-10-30T00:17:45.507Z,661.5410
2022-10-30T00:17:57.010Z,660.2310
2022-10-30T00:18:08.267Z,661.5410
2022-10-30T00:18:19.436Z,660.8850
2022-10-30T00:18:30.630Z,658.9260
2022-10-30T00:18:41.828Z,664.1760
2022-10-30T00:18:53.038Z,661.5410
2022-10-30T00:19:04.240Z,660.2310
2022-10-30T00:19:15.428Z,660.2310
2022-10-30T00:19:26.478Z,662.8560
2022-10-30T00:19:37.508Z,661.5410
2022-10-30T00:19:48.709Z,665.5020
2022-10-30T00:19:59.909Z,663.5160
2022-10-30T00:20:10.980Z,665.5020
2022-10-30T00:20:22.042Z,668.1700
2022-10-30T00:20:33.106Z,664.1760
2022-10-30T00:20:44.169Z,664.1760
2022-10-30T00:20:55.337Z,668.1700
2022-10-30T00:21:06.471Z,662.8560
2022-10-30T00:21:17.669Z,668.8400
2022-10-30T00:21:28.874Z,664.1760
2022-10-30T00:21:39.909Z,662.8560
2022-10-30T00:21:50.949Z,664.1760
2022-10-30T00:22:08.892Z,663.5160
2022-10-30T00:22:20.068Z,652.4790
2022-10-30T00:22:31.152Z,657.6260
2022-10-30T00:22:42.208Z,653.7580
2022-10-30T00:22:53.348Z,657.6260
2022-10-30T00:23:04.550Z,660.2310
2022-10-30T00:23:15.750Z,660.8850
2022-10-30T00:23:26.952Z,662.8560
2022-10-30T00:23:37.988Z,662.8560
2022-10-30T00:23:49.037Z,657.6260
2022-10-30T00:24:00.228Z,658.9260
2022-10-30T00:24:11.428Z,664.1760
2022-10-30T00:24:22.628Z,664.8390
2022-10-30T00:24:33.729Z,660.2310
2022-10-30T00:24:44.788Z,666.1670
2022-10-30T00:24:55.908Z,661.5410
2022-10-30T00:25:07.110Z,664.1760
2022-10-30T00:25:18.148Z,661.5410
2022-10-30T00:25:29.188Z,666.1670
2022-10-30T00:25:40.401Z,664.1760
2022-10-30T00:25:51.438Z,664.8390
2022-10-30T00:26:02.509Z,665.5020
2022-10-30T00:26:13.680Z,664.1760
2022-10-30T00:26:24.916Z,662.1980
2022-10-30T00:26:36.069Z,670.8580
2022-10-30T00:26:47.268Z,668.1700
2022-10-30T00:26:58.469Z,669.5110
2022-10-30T00:27:09.668Z,668.1700
2022-10-30T00:27:20.868Z,668.1700
2022-10-30T00:27:32.098Z,664.1760
2022-10-30T00:27:43.268Z,664.8390
2022-10-30T00:27:54.309Z,669.5110
2022-10-30T00:28:05.347Z,665.5020
2022-10-30T00:28:16.408Z,663.5160
2022-10-30T00:28:27.469Z,666.8330
2022-10-30T00:28:38.517Z,667.5010
2022-10-30T00:28:49.578Z,665.5020
2022-10-30T00:29:00.636Z,664.1760
2022-10-30T00:29:11.709Z,671.5340
2022-10-30T00:29:22.791Z,667.5010
2022-10-30T00:29:33.988Z,668.1700
2022-10-30T00:29:45.187Z,666.1670
2022-10-30T00:29:56.288Z,671.5340
2022-10-30T00:30:07.331Z,670.8580
2022-10-30T00:30:18.468Z,668.1700
2022-10-30T00:30:29.668Z,670.1840
2022-10-30T00:30:40.711Z,668.1700
2022-10-30T00:30:51.749Z,672.2110
2022-10-30T00:31:02.949Z,665.5020
2022-10-30T00:31:13.990Z,670.8580
2022-10-30T00:31:25.028Z,668.1700
2022-10-30T00:31:36.235Z,672.8890
2022-10-30T00:31:47.429Z,669.5110
2022-10-30T00:31:58.628Z,668.1700
2022-10-30T00:32:09.687Z,670.8580
2022-10-30T00:32:20.743Z,669.5110
2022-10-30T00:32:31.918Z,670.1840
2022-10-30T00:32:43.134Z,670.8580
2022-10-30T00:32:54.390Z,666.1670
2022-10-30T00:33:05.508Z,667.5010
2022-10-30T00:33:16.710Z,673.5690
2022-10-30T00:33:27.908Z,667.5010
2022-10-30T00:33:39.110Z,672.2110
2022-10-30T00:33:50.310Z,666.8330
2022-10-30T00:34:01.513Z,672.8890
2022-10-30T00:34:12.709Z,666.8330
2022-10-30T00:34:23.746Z,674.9320
2022-10-30T00:34:34.788Z,667.5010
2022-10-30T00:34:45.987Z,668.8400
2022-10-30T00:34:57.199Z,668.1700
2022-10-30T00:35:08.388Z,674.9320
2022-10-30T00:35:19.601Z,672.8890
2022-10-30T00:35:30.637Z,672.8890
2022-10-30T00:35:41.752Z,672.2110
2022-10-30T00:35:52.874Z,672.8890
2022-10-30T00:36:04.068Z,666.8330
2022-10-30T00:36:15.268Z,670.1840
2022-10-30T00:36:26.468Z,670.1840
2022-10-30T00:36:37.670Z,668.1700
2022-10-30T00:36:48.869Z,668.1700
2022-10-30T00:37:00.088Z,672.8890
2022-10-30T00:37:11.268Z,667.5010
2022-10-30T00:37:22.506Z,670.1840
2022-10-30T00:37:33.552Z,672.2110
2022-10-30T00:37:44.657Z,673.5690
2022-10-30T00:37:56.008Z,669.5110
2022-10-30T00:38:07.307Z,674.9320
2022-10-30T00:38:18.468Z,673.5690
2022-10-30T00:38:29.507Z,669.5110
2022-10-30T00:38:40.559Z,674.9320
2022-10-30T00:38:51.612Z,671.5340
2022-10-30T00:39:02.678Z,676.3010
2022-10-30T00:39:13.830Z,668.8400
2022-10-30T00:39:25.037Z,670.1840
2022-10-30T00:39:36.069Z,672.2110
2022-10-30T00:39:47.119Z,673.5690
2022-10-30T00:39:58.309Z,670.1840
2022-10-30T00:40:09.370Z,672.8890
2022-10-30T00:40:20.437Z,674.9320
2022-10-30T00:40:31.594Z,674.9320
2022-10-30T00:40:42.789Z,676.3010
2022-10-30T00:40:53.990Z,671.5340
2022-10-30T00:41:05.188Z,676.9880
2022-10-30T00:41:16.221Z,676.3010
2022-10-30T00:41:27.279Z,674.9320
2022-10-30T00:41:38.477Z,672.2110
2022-10-30T00:41:49.539Z,673.5690
2022-10-30T00:42:00.607Z,674.2500
2022-10-30T00:42:11.681Z,670.1840
2022-10-30T00:42:22.747Z,678.3650
2022-10-30T00:42:33.831Z,676.9880
2022-10-30T00:42:45.059Z,678.3650
2022-10-30T00:42:56.108Z,672.2110
2022-10-30T00:43:07.168Z,674.9320
2022-10-30T00:43:18.311Z,673.5690
2022-10-30T00:43:29.508Z,674.2500
2022-10-30T00:43:40.708Z,678.3650
2022-10-30T00:43:51.908Z,674.9320
2022-10-30T00:44:02.946Z,678.3650
2022-10-30T00:44:13.999Z,674.9320
2022-10-30T00:44:25.190Z,673.5690
2022-10-30T00:44:36.388Z,673.5690
2022-10-30T00:44:47.588Z,672.2110
2022-10-30T00:44:58.801Z,679.0560
2022-10-30T00:45:09.989Z,679.7480
2022-10-30T00:45:21.196Z,677.6760
2022-10-30T00:45:32.396Z,673.5690
2022-10-30T00:45:43.588Z,673.5690
2022-10-30T00:45:54.788Z,681.1370
2022-10-30T00:46:05.987Z,681.8340
2022-10-30T00:46:17.206Z,673.5690
2022-10-30T00:46:28.388Z,680.4420
2022-10-30T00:46:39.589Z,675.6160
2022-10-30T00:46:50.795Z,672.8890
2022-10-30T00:47:01.836Z,673.5690
2022-10-30T00:47:12.877Z,677.6760
2022-10-30T00:47:24.068Z,675.6160
2022-10-30T00:47:35.272Z,676.9880
2022-10-30T00:47:46.329Z,676.3010
2022-10-30T00:47:57.710Z,675.6160
2022-10-30T00:48:08.888Z,674.9320
2022-10-30T00:48:20.069Z,675.6160
2022-10-30T00:48:31.108Z,674.9320
2022-10-30T00:48:42.147Z,681.8340
2022-10-30T00:48:53.348Z,675.6160
2022-10-30T00:49:04.547Z,674.9320
2022-10-30T00:49:15.755Z,676.9880
2022-10-30T00:49:26.957Z,674.9320
2022-10-30T00:49:38.148Z,676.9880
2022-10-30T00:49:49.348Z,683.2310
2022-10-30T00:50:00.549Z,677.6760
2022-10-30T00:50:11.588Z,673.5690
2022-10-30T00:50:22.679Z,681.8340
2022-10-30T00:50:33.832Z,679.7480
2022-10-30T00:50:45.029Z,681.8340
2022-10-30T00:50:56.233Z,676.3010
2022-10-30T00:51:07.431Z,685.3370
2022-10-30T00:51:18.478Z,679.7480
2022-10-30T00:51:29.548Z,683.2310
2022-10-30T00:51:40.711Z,681.8340
2022-10-30T00:51:51.909Z,683.2310
2022-10-30T00:52:03.109Z,679.0560
2022-10-30T00:52:14.308Z,684.6340
2022-10-30T00:52:25.535Z,681.8340
2022-10-30T00:52:36.707Z,684.6340
2022-10-30T00:52:47.937Z,678.3650
2022-10-30T00:52:59.588Z,676.9880
2022-10-30T00:53:10.968Z,677.6760
2022-10-30T00:53:22.149Z,676.3010
2022-10-30T00:53:33.347Z,684.6340
2022-10-30T00:53:44.549Z,683.9310
2022-10-30T00:53:55.748Z,683.9310
2022-10-30T00:54:06.951Z,676.9880
2022-10-30T00:54:18.149Z,683.2310
2022-10-30T00:54:29.349Z,686.0420
2022-10-30T00:54:40.560Z,686.7490
2022-10-30T00:54:51.748Z,684.6340
2022-10-30T00:55:02.975Z,683.2310
2022-10-30T00:55:14.028Z,685.3370
2022-10-30T00:55:25.099Z,683.2310
2022-10-30T00:55:36.227Z,684.6340
2022-10-30T00:55:47.429Z,688.1660
2022-10-30T00:55:58.627Z,681.1370
2022-10-30T00:56:09.828Z,687.4570
2022-10-30T00:56:21.030Z,686.7490
2022-10-30T00:56:32.127Z,682.5310
2022-10-30T00:56:43.208Z,686.7490
2022-10-30T00:56:54.308Z,689.5900
2022-10-30T00:57:05.508Z,681.8340
2022-10-30T00:57:16.552Z,686.0420
2022-10-30T00:57:27.587Z,686.7490
2022-10-30T00:57:38.791Z,682.5310
2022-10-30T00:57:50.018Z,689.5900
2022-10-30T00:58:01.189Z,688.8770
2022-10-30T00:58:12.390Z,679.0560
2022-10-30T00:58:23.431Z,685.3370
2022-10-30T00:58:34.469Z,686.7490
2022-10-30T00:58:45.667Z,682.5310
2022-10-30T00:58:56.868Z,686.0420
2022-10-30T00:59:08.068Z,683.9310
2022-10-30T00:59:19.276Z,686.7490
2022-10-30T00:59:30.470Z,688.8770
2022-10-30T00:59:41.669Z,683.2310
2022-10-30T00:59:52.868Z,682.5310
2022-10-30T01:00:04.066Z,684.6340
2022-10-30T01:00:15.128Z,691.0190
2022-10-30T01:00:26.169Z,687.4570
2022-10-30T01:00:37.349Z,690.3030
2022-10-30T01:00:48.547Z,681.8340
2022-10-30T01:00:59.807Z,686.0420
2022-10-30T01:01:11.112Z,686.0420
2022-10-30T01:01:22.320Z,684.6340
2022-10-30T01:01:33.625Z,691.0190
2022-10-30T01:01:44.979Z,686.0420
2022-10-30T01:01:56.305Z,683.9310
2022-10-30T01:02:07.757Z,687.4570
2022-10-30T01:02:18.996Z,681.8340
2022-10-30T01:02:30.548Z,683.2310
2022-10-30T01:02:41.942Z,682.5310
2022-10-30T01:02:53.054Z,687.4570
2022-10-30T01:03:04.228Z,688.8770
2022-10-30T01:03:15.269Z,688.8770
2022-10-30T01:03:26.309Z,686.0420
2022-10-30T01:03:37.509Z,684.6340
2022-10-30T01:03:48.711Z,684.6340
2022-10-30T01:03:59.908Z,686.0420
2022-10-30T01:04:11.109Z,683.9310
2022-10-30T01:04:27.280Z,683.2310
2022-10-30T01:04:39.267Z,675.6160
2022-10-30T01:04:50.469Z,674.9320
2022-10-30T01:05:01.793Z,677.6760
2022-10-30T01:05:12.870Z,679.0560
2022-10-30T01:05:23.908Z,681.8340
2022-10-30T01:05:34.948Z,678.3650
2022-10-30T01:05:45.988Z,681.8340
2022-10-30T01:05:57.084Z,687.4570
2022-10-30T01:06:08.231Z,686.0420
2022-10-30T01:06:19.301Z,684.6340
2022-10-30T01:06:30.506Z,685.3370
2022-10-30T01:06:41.570Z,683.2310
2022-10-30T01:06:52.717Z,683.2310
2022-10-30T01:07:03.910Z,688.8770
2022-10-30T01:07:15.110Z,684.6340
2022-10-30T01:07:26.309Z,684.6340
2022-10-30T01:07:37.382Z,688.1660
2022-10-30T01:07:48.433Z,686.7490
2022-10-30T01:07:59.942Z,688.1660
2022-10-30T01:08:11.533Z,686.7490
2022-10-30T01:08:22.724Z,681.8340
2022-10-30T01:08:33.829Z,688.8770
2022-10-30T01:08:45.126Z,686.7490
2022-10-30T01:08:59.845Z,683.2310
2022-10-30T01:09:11.748Z,681.1370
2022-10-30T01:09:22.829Z,676.9880
2022-10-30T01:09:33.987Z,679.7480
2022-10-30T01:09:45.029Z,684.6340
2022-10-30T01:09:56.068Z,688.8770
2022-10-30T01:10:07.270Z,681.8340
2022-10-30T01:10:18.467Z,681.8340
2022-10-30T01:10:29.682Z,686.7490
2022-10-30T01:10:40.871Z,684.6340
2022-10-30T01:10:51.922Z,682.5310
2022-10-30T01:11:02.999Z,681.8340
2022-10-30T01:11:14.148Z,681.1370
2022-10-30T01:11:25.348Z,681.8340
2022-10-30T01:11:36.388Z,686.0420
2022-10-30T01:11:47.439Z,687.4570
2022-10-30T01:11:58.479Z,686.0420
2022-10-30T01:12:09.549Z,683.2310
2022-10-30T01:12:20.708Z,683.2310
2022-10-30T01:12:31.908Z,684.6340
2022-10-30T01:12:43.109Z,689.5900
2022-10-30T01:12:54.307Z,686.0420
2022-10-30T01:13:05.369Z,685.3370
2022-10-30T01:13:16.429Z,686.7490
2022-10-30T01:13:27.589Z,685.3370
2022-10-30T01:13:38.800Z,684.6340
2022-10-30T01:13:49.989Z,691.0190
2022-10-30T01:14:01.188Z,691.7360
2022-10-30T01:14:12.390Z,687.4570
2022-10-30T01:14:23.589Z,693.1740
2022-10-30T01:14:34.788Z,686.0420
2022-10-30T01:14:45.987Z,693.1740
2022-10-30T01:14:57.188Z,684.6340
2022-10-30T01:15:08.239Z,685.3370
2022-10-30T01:15:19.278Z,687.4570
2022-10-30T01:15:30.468Z,687.4570
2022-10-30T01:15:41.668Z,691.7360
2022-10-30T01:15:52.870Z,688.1660
2022-10-30T01:16:04.069Z,690.3030
2022-10-30T01:16:15.269Z,686.0420
2022-10-30T01:16:26.468Z,686.0420
2022-10-30T01:16:37.681Z,693.1740
2022-10-30T01:16:48.869Z,692.4540
2022-10-30T01:17:00.089Z,691.0190
2022-10-30T01:17:11.140Z,688.8770
2022-10-30T01:17:22.199Z,695.3420
2022-10-30T01:17:33.348Z,694.6180
2022-10-30T01:17:44.549Z,688.8770
2022-10-30T01:17:56.145Z,693.8950
2022-10-30T01:18:07.649Z,688.8770
2022-10-30T01:18:18.707Z,692.4540
2022-10-30T01:18:29.763Z,688.8770
2022-10-30T01:18:40.869Z,689.5900
2022-10-30T01:18:52.070Z,690.3030
2022-10-30T01:19:03.187Z,691.7360
2022-10-30T01:19:14.220Z,689.5900
2022-10-30T01:19:25.347Z,695.3420
2022-10-30T01:19:36.552Z,693.8950
2022-10-30T01:19:47.664Z,691.7360
2022-10-30T01:19:58.867Z,693.1740
2022-10-30T01:20:09.965Z,696.0680
2022-10-30T01:20:21.032Z,696.7950
2022-10-30T01:20:32.231Z,690.3030
2022-10-30T01:20:43.428Z,694.6180
2022-10-30T01:20:54.629Z,693.1740
2022-10-30T01:21:05.837Z,689.5900
2022-10-30T01:21:16.902Z,696.7950
2022-10-30T01:21:27.950Z,689.5900
2022-10-30T01:21:39.111Z,691.7360
2022-10-30T01:21:50.151Z,696.7950
2022-10-30T01:22:01.200Z,696.7950
2022-10-30T01:22:12.388Z,692.4540
2022-10-30T01:22:23.588Z,696.0680
2022-10-30T01:22:34.636Z,693.8950
2022-10-30T01:22:45.771Z,697.5240
2022-10-30T01:22:57.211Z,696.7950
2022-10-30T01:23:08.461Z,696.7950
2022-10-30T01:23:19.537Z,692.4540
2022-10-30T01:23:30.583Z,690.3030
2022-10-30T01:23:41.668Z,696.0680
2022-10-30T01:23:52.866Z,693.1740
2022-10-30T01:24:04.075Z,693.1740
2022-10-30T01:24:15.270Z,698.2550
2022-10-30T01:24:26.476Z,693.1740
2022-10-30T01:24:37.548Z,697.5240
2022-10-30T01:24:48.609Z,694.6180
2022-10-30T01:24:59.751Z,691.0190
2022-10-30T01:25:10.955Z,695.3420
2022-10-30T01:25:22.149Z,691.7360
2022-10-30T01:25:33.348Z,693.1740
2022-10-30T01:25:44.386Z,690.3030
2022-10-30T01:25:55.427Z,696.0680
2022-10-30T01:26:06.628Z,697.5240
2022-10-30T01:26:17.829Z,698.9870
2022-10-30T01:26:29.028Z,697.5240
2022-10-30T01:26:40.241Z,696.0680
2022-10-30T01:26:51.428Z,693.8950
2022-10-30T01:27:02.628Z,694.6180
2022-10-30T01:27:13.828Z,698.9870
2022-10-30T01:27:25.029Z,693.8950
2022-10-30T01:27:36.229Z,697.5240
2022-10-30T01:27:47.430Z,693.1740
2022-10-30T01:27:58.506Z,696.0680
2022-10-30T01:28:09.589Z,696.0680
2022-10-30T01:28:20.709Z,698.2550
2022-10-30T01:28:31.908Z,693.1740
2022-10-30T01:28:43.124Z,694.6180
2022-10-30T01:28:54.309Z,696.0680
2022-10-30T01:29:05.518Z,696.0680
2022-10-30T01:29:16.708Z,693.1740
2022-10-30T01:29:27.911Z,699.7200
2022-10-30T01:29:39.108Z,698.9870
2022-10-30T01:29:50.161Z,696.7950
2022-10-30T01:30:01.209Z,696.7950
2022-10-30T01:30:12.387Z,697.5240
2022-10-30T01:30:23.590Z,693.8950
2022-10-30T01:30:34.794Z,690.3030
2022-10-30T01:30:45.993Z,690.3030
2022-10-30T01:30:57.029Z,698.2550
2022-10-30T01:31:08.099Z,693.1740
2022-10-30T01:31:19.157Z,698.2550
2022-10-30T01:31:30.219Z,700.4550
2022-10-30T01:31:41.355Z,696.7950
2022-10-30T01:31:52.549Z,700.4550
2022-10-30T01:32:03.587Z,698.2550
2022-10-30T01:32:14.633Z,695.3420
2022-10-30T01:32:25.829Z,697.5240
2022-10-30T01:32:36.938Z,699.7200
2022-10-30T01:32:48.010Z,696.0680
2022-10-30T01:32:59.592Z,694.6180
2022-10-30T01:33:11.008Z,693.1740
2022-10-30T01:33:22.051Z,693.8950
2022-10-30T01:33:33.118Z,695.3420
2022-10-30T01:33:44.228Z,694.6180
2022-10-30T01:33:55.439Z,696.7950
2022-10-30T01:34:06.477Z,697.5240
2022-10-30T01:34:17.520Z,697.5240
2022-10-30T01:34:28.765Z,699.7200
2022-10-30T01:34:39.945Z,703.4110
2022-10-30T01:34:50.948Z,694.6180
2022-10-30T01:35:01.999Z,696.0680
2022-10-30T01:35:13.068Z,696.0680
2022-10-30T01:35:24.117Z,695.3420
2022-10-30T01:35:35.267Z,696.7950
2022-10-30T01:35:46.471Z,695.3420
2022-10-30T01:35:57.678Z,695.3420
2022-10-30T01:36:08.877Z,698.9870
2022-10-30T01:36:19.919Z,698.9870
2022-10-30T01:36:30.979Z,696.0680
2022-10-30T01:36:42.148Z,701.1920
2022-10-30T01:36:53.351Z,696.0680
2022-10-30T01:37:04.554Z,696.0680
2022-10-30T01:37:15.748Z,696.0680
2022-10-30T01:37:26.797Z,698.9870
2022-10-30T01:37:37.859Z,703.4110
2022-10-30T01:37:49.053Z,697.5240
2022-10-30T01:38:00.752Z,699.7200
2022-10-30T01:38:12.129Z,695.3420
2022-10-30T01:38:23.177Z,698.2550
2022-10-30T01:38:34.240Z,698.2550
2022-10-30T01:38:45.351Z,696.0680
2022-10-30T01:38:56.549Z,700.4550
2022-10-30T01:39:07.747Z,695.3420
2022-10-30T01:39:18.955Z,694.6180
2022-10-30T01:39:30.149Z,694.6180
2022-10-30T01:39:41.354Z,694.6180
2022-10-30T01:39:52.548Z,696.0680
2022-10-30T01:40:03.774Z,700.4550
2022-10-30T01:40:14.788Z,701.9300
2022-10-30T01:40:25.828Z,699.7200
2022-10-30T01:40:37.027Z,696.0680
2022-10-30T01:40:48.228Z,696.7950
2022-10-30T01:40:59.429Z,698.2550
2022-10-30T01:41:10.629Z,701.1920
2022-10-30T01:41:21.829Z,696.0680
2022-10-30T01:41:33.027Z,698.9870
2022-10-30T01:41:44.229Z,701.9300
2022-10-30T01:41:55.430Z,697.5240
2022-10-30T01:42:06.628Z,696.0680
2022-10-30T01:42:17.679Z,694.6180
2022-10-30T01:42:28.727Z,694.6180
2022-10-30T01:42:39.918Z,696.0680
2022-10-30T01:42:51.126Z,697.5240
2022-10-30T01:43:02.308Z,694.6180
2022-10-30T01:43:13.537Z,695.3420
2022-10-30T01:43:24.707Z,696.0680
2022-10-30T01:43:35.915Z,698.9870
2022-10-30T01:43:46.958Z,694.6180
2022-10-30T01:43:58.028Z,693.1740
2022-10-30T01:44:09.189Z,698.9870
2022-10-30T01:44:20.386Z,694.6180
2022-10-30T01:44:31.610Z,694.6180
2022-10-30T01:44:42.788Z,698.9870
2022-10-30T01:44:53.988Z,698.9870
2022-10-30T01:45:05.188Z,700.4550
2022-10-30T01:45:16.393Z,696.7950
2022-10-30T01:45:27.588Z,693.1740
2022-10-30T01:45:38.640Z,698.9870
2022-10-30T01:45:49.710Z,700.4550
2022-10-30T01:46:00.882Z,695.3420
2022-10-30T01:46:12.070Z,694.6180
2022-10-30T01:46:23.268Z,694.6180
2022-10-30T01:46:34.468Z,691.7360
2022-10-30T01:46:45.668Z,696.0680
2022-10-30T01:46:56.870Z,698.2550
2022-10-30T01:47:08.072Z,701.9300
2022-10-30T01:47:19.268Z,696.0680
2022-10-30T01:47:30.467Z,695.3420
2022-10-30T01:47:41.507Z,698.9870
2022-10-30T01:47:52.552Z,694.6180
2022-10-30T01:48:03.751Z,696.0680
2022-10-30T01:48:14.982Z,696.0680
2022-10-30T01:48:26.160Z,694.6180
2022-10-30T01:48:37.348Z,700.4550
2022-10-30T01:48:48.389Z,697.5240
2022-10-30T01:48:59.445Z,703.4110
2022-10-30T01:49:10.691Z,694.6180
2022-10-30T01:49:33.043Z,697.5240
2022-10-30T01:49:44.230Z,700.4550
2022-10-30T01:49:55.428Z,702.6690
2022-10-30T01:50:06.631Z,694.6180
2022-10-30T01:50:17.828Z,698.9870
2022-10-30T01:50:29.028Z,698.9870
2022-10-30T01:50:40.230Z,693.8950
2022-10-30T01:50:51.268Z,702.6690
2022-10-30T01:51:02.309Z,701.9300
2022-10-30T01:51:13.510Z,700.4550
2022-10-30T01:51:24.708Z,700.4550
2022-10-30T01:51:35.916Z,700.4550
2022-10-30T01:51:46.959Z,696.0680
2022-10-30T01:51:58.019Z,697.5240
2022-10-30T01:52:09.189Z,695.3420
2022-10-30T01:52:20.389Z,696.0680
2022-10-30T01:52:31.588Z,696.7950
2022-10-30T01:52:42.787Z,694.6180
2022-10-30T01:52:53.863Z,701.9300
2022-10-30T01:53:04.889Z,696.7950
2022-10-30T01:53:16.097Z,699.7200
2022-10-30T01:53:27.270Z,696.0680
2022-10-30T01:53:38.473Z,701.1920
2022-10-30T01:53:49.668Z,696.0680
2022-10-30T01:54:00.749Z,697.5240
2022-10-30T01:54:11.819Z,701.9300
2022-10-30T01:54:22.938Z,695.3420
2022-10-30T01:54:34.150Z,700.4550
2022-10-30T01:54:45.348Z,699.7200
2022-10-30T01:54:56.547Z,700.4550
2022-10-30T01:55:07.749Z,696.0680
2022-10-30T01:55:18.953Z,696.7950
2022-10-30T01:55:30.150Z,696.7950
2022-10-30T01:55:41.348Z,701.9300
2022-10-30T01:55:52.551Z,701.9300
2022-10-30T01:56:03.588Z,696.7950
2022-10-30T01:56:14.631Z,696.0680
2022-10-30T01:56:25.913Z,700.4550
2022-10-30T01:56:37.029Z,697.5240
2022-10-30T01:56:48.229Z,701.1920
2022-10-30T01:56:59.428Z,700.4550
2022-10-30T01:57:10.466Z,696.0680
2022-10-30T01:57:21.508Z,696.0680
2022-10-30T01:57:32.715Z,698.2550
2022-10-30T01:57:43.922Z,698.2550
2022-10-30T01:57:54.960Z,696.7950
2022-10-30T01:58:06.027Z,700.4550
2022-10-30T01:58:17.098Z,696.7950
2022-10-30T01:58:28.168Z,698.9870
2022-10-30T01:58:39.269Z,701.9300
2022-10-30T01:58:50.469Z,698.9870
2022-10-30T01:59:01.672Z,696.7950
2022-10-30T01:59:12.867Z,697.5240
2022-10-30T01:59:24.068Z,697.5240
2022-10-30T01:59:35.270Z,697.5240
2022-10-30T01:59:46.486Z,700.4550
2022-10-30T01:59:57.529Z,703.4110
2022-10-30T02:00:08.587Z,698.2550
2022-10-30T02:00:19.637Z,697.5240
2022-10-30T02:00:30.698Z,700.4550
2022-10-30T02:00:41.829Z,698.9870
2022-10-30T02:00:53.112Z,701.1920
2022-10-30T02:01:04.321Z,704.1530
2022-10-30T02:01:15.521Z,701.1920
2022-10-30T02:01:26.776Z,698.2550
2022-10-30T02:01:37.977Z,697.5240
2022-10-30T02:01:49.202Z,701.1920
2022-10-30T02:02:00.479Z,697.5240
2022-10-30T02:02:11.917Z,697.5240
2022-10-30T02:02:23.178Z,697.5240
2022-10-30T02:02:34.661Z,701.1920
2022-10-30T02:02:46.135Z,700.4550
2022-10-30T02:02:57.566Z,697.5240
2022-10-30T02:03:08.768Z,697.5240
2022-10-30T02:03:19.948Z,700.4550
2022-10-30T02:03:31.110Z,699.7200
2022-10-30T02:03:42.405Z,695.3420
2022-10-30T02:03:53.576Z,697.5240
2022-10-30T02:04:04.791Z,696.0680
2022-10-30T02:04:15.911Z,696.0680
2022-10-30T02:04:27.116Z,701.9300
2022-10-30T02:04:38.308Z,698.2550
2022-10-30T02:04:49.457Z,694.6180
2022-10-30T02:05:00.520Z,703.4110
2022-10-30T02:05:11.578Z,696.0680
2022-10-30T02:05:22.788Z,700.4550
2022-10-30T02:05:33.996Z,698.9870
2022-10-30T02:05:45.188Z,701.1920
2022-10-30T02:05:56.238Z,697.5240
2022-10-30T02:06:07.290Z,704.1530
2022-10-30T02:06:18.350Z,697.5240
2022-10-30T02:06:29.435Z,701.9300
2022-10-30T02:06:40.548Z,698.2550
2022-10-30T02:06:51.616Z,698.9870
2022-10-30T02:07:02.678Z,698.9870
2022-10-30T02:07:13.829Z,701.1920
2022-10-30T02:07:24.870Z,698.9870
2022-10-30T02:07:35.909Z,704.8980
2022-10-30T02:07:47.108Z,706.3910
2022-10-30T02:07:58.671Z,700.4550
2022-10-30T02:08:09.869Z,696.0680
2022-10-30T02:08:20.945Z,696.0680
2022-10-30T02:08:31.996Z,697.5240
2022-10-30T02:08:43.112Z,698.9870
2022-10-30T02:08:54.309Z,695.3420
2022-10-30T02:09:05.507Z,703.4110
2022-10-30T02:09:16.717Z,698.2550
2022-10-30T02:09:27.760Z,702.6690
2022-10-30T02:09:38.828Z,698.2550
2022-10-30T02:09:49.988Z,697.5240
2022-10-30T02:10:01.188Z,700.4550
2022-10-30T02:10:12.387Z,697.5240
2022-10-30T02:10:23.587Z,698.9870
2022-10-30T02:10:34.639Z,698.2550
2022-10-30T02:10:45.698Z,700.4550
2022-10-30T02:10:56.869Z,698.9870
2022-10-30T02:11:08.069Z,703.4110
2022-10-30T02:11:19.268Z,698.9870
2022-10-30T02:11:30.475Z,700.4550